Whites Creek, TN

11:13 AM CDT on March 30, 2017 (GMT -0500)
Jordan Ridge @ Eaton's Creek | | Change Station

Elev 535 ft 36.22 °N, 86.87 °W | Updated 4 minutes ago

Partly Cloudy
Partly Cloudy
73.8 °F
Feels Like 76 °F
N
1.0
Wind Variable Wind from SSW
Gusts 10.0 mph

Today
High -- | Low -- °F
--% Chance of Precip.
Yesterday
High -- | Low -- °F
Precip. -- in
Pressure 29.74 in
Visibility 10.0 miles
Clouds Few 3600 ft
Overcast 20000 ft
Heat Index 76 °F
Dew Point 61 °F
Humidity 64%
Rainfall 0.00 in
Snow Depth Not available.
6:35 AM 7:07 PM
Waxing Crescent, 9% visible
METAR KBNA 301553Z 21010G18KT 10SM FEW036 OVC200 24/14 A2976 RMK AO2 SLP071 T02390139
Pressure 29.74 in
Visibility 10.0 miles
Clouds Few 3600 ft
Overcast 20000 ft
Heat Index 76 °F
Dew Point 61 °F
Humidity 64%
Rainfall 0.00 in
Snow Depth Not available.
6:35 AM 7:07 PM
Waxing Crescent, 9% visible
METAR KBNA 301553Z 21010G18KT 10SM FEW036 OVC200 24/14 A2976 RMK AO2 SLP071 T02390139

Get Severe Weather Alerts

Thanks for signing up!

Be on the lookout for a verification email in your inbox.

You'll start receiving the daily forecast at 8 AM.

×

10-Day Weather Forecast

Almanac

Astronomy

Mar. 30, 2017 Rise Set
Actual Time
Civil Twilight
Nautical Twilight
Astronomical Twilight
Moon
Length of Visible Light
Length of Day
Tomorrow will be .
, % of the Moon is Illuminated

Today's Extremes

State Highs State Lows

Community

WunderPhotos

Upload Photos

1,962,540 photos uploaded!

WunderBlog® & News

Nearby

Air Quality

  Air Quality AQ Index Pollutant
Not available.

Snow Depth

Station Depth Elevation

Earthquake Activity

City Distance Mag. Time & Date
Minimum magnitude displayed is 2.5.

Earthquake Activity

City Distance Mag. Time & Date
Minimum magnitude displayed is 2.5.

Coastal Water Temperatures

Place Temperature

Stations

Nearby Weather Stations

Station Location Temp. Windchill Dew Point Humidity Wind Precip. Elev Updated Type
                   

Watches & Warnings

There are currently no watches in effect.